sensor_id;sensor_type;location;lat;lon;timestamp;pressure;altitude;pressure_sealevel;temperature;humidity
28428;BME280;15662;49.128;8.520;2023-02-26T00:01:51;100123.88;;;7.96;36.71
28428;BME280;15662;49.128;8.520;2023-02-26T00:04:22;100122.88;;;8.02;36.93
28428;BME280;15662;49.128;8.520;2023-02-26T00:06:53;100132.56;;;8.01;37.31
28428;BME280;15662;49.128;8.520;2023-02-26T00:09:29;100126.50;;;7.98;37.16
28428;BME280;15662;49.128;8.520;2023-02-26T00:12:00;100131.69;;;8.01;37.36
28428;BME280;15662;49.128;8.520;2023-02-26T00:14:33;100123.91;;;7.95;36.84
28428;BME280;15662;49.128;8.520;2023-02-26T00:20:17;100109.97;;;7.87;37.04
28428;BME280;15662;49.128;8.520;2023-02-26T00:22:46;100123.91;;;7.95;37.25
28428;BME280;15662;49.128;8.520;2023-02-26T00:25:16;100123.16;;;7.88;37.18
28428;BME280;15662;49.128;8.520;2023-02-26T00:27:44;100124.91;;;7.89;36.80
28428;BME280;15662;49.128;8.520;2023-02-26T00:30:12;100127.53;;;7.88;37.12
28428;BME280;15662;49.128;8.520;2023-02-26T00:32:41;100124.06;;;7.86;36.82
28428;BME280;15662;49.128;8.520;2023-02-26T00:35:14;100119.75;;;7.82;36.70
28428;BME280;15662;49.128;8.520;2023-02-26T00:38:12;100130.38;;;7.79;36.99
28428;BME280;15662;49.128;8.520;2023-02-26T00:40:47;100128.75;;;7.70;36.93
28428;BME280;15662;49.128;8.520;2023-02-26T00:43:24;100125.31;;;7.66;37.15
28428;BME280;15662;49.128;8.520;2023-02-26T00:46:40;100135.97;;;7.60;36.76
28428;BME280;15662;49.128;8.520;2023-02-26T00:52:48;100139.66;;;7.50;37.27
28428;BME280;15662;49.128;8.520;2023-02-26T00:55:22;100135.31;;;7.46;37.24
28428;BME280;15662;49.128;8.520;2023-02-26T00:57:53;100143.25;;;7.46;37.14
28428;BME280;15662;49.128;8.520;2023-02-26T01:00:21;100140.59;;;7.46;37.32
28428;BME280;15662;49.128;8.520;2023-02-26T01:02:49;100136.19;;;7.46;37.29
28428;BME280;15662;49.128;8.520;2023-02-26T01:05:19;100137.09;;;7.45;37.08
28428;BME280;15662;49.128;8.520;2023-02-26T01:10:41;100138.94;;;7.39;37.31
28428;BME280;15662;49.128;8.520;2023-02-26T01:13:09;100143.34;;;7.38;37.17
28428;BME280;15662;49.128;8.520;2023-02-26T01:15:38;100138.16;;;7.34;36.93
28428;BME280;15662;49.128;8.520;2023-02-26T01:18:45;100129.44;;;7.30;37.11
28428;BME280;15662;49.128;8.520;2023-02-26T01:21:18;100128.69;;;7.22;37.32
28428;BME280;15662;49.128;8.520;2023-02-26T01:23:51;100134.88;;;7.21;37.01
28428;BME280;15662;49.128;8.520;2023-02-26T01:26:25;100131.38;;;7.17;37.19
28428;BME280;15662;49.128;8.520;2023-02-26T01:28:54;100131.44;;;7.16;37.34
28428;BME280;15662;49.128;8.520;2023-02-26T01:34:24;100124.50;;;7.09;37.58
28428;BME280;15662;49.128;8.520;2023-02-26T01:37:02;100141.16;;;7.09;37.28
28428;BME280;15662;49.128;8.520;2023-02-26T01:39:44;100135.97;;;7.06;37.74
28428;BME280;15662;49.128;8.520;2023-02-26T01:42:24;100140.38;;;7.04;37.25
28428;BME280;15662;49.128;8.520;2023-02-26T01:48:05;100136.00;;;7.03;37.93
28428;BME280;15662;49.128;8.520;2023-02-26T01:50:36;100120.28;;;6.97;37.99
28428;BME280;15662;49.128;8.520;2023-02-26T01:53:24;100132.63;;;6.95;37.67
28428;BME280;15662;49.128;8.520;2023-02-26T01:56:15;100133.56;;;6.89;37.60
28428;BME280;15662;49.128;8.520;2023-02-26T01:58:47;100142.38;;;6.88;37.95
28428;BME280;15662;49.128;8.520;2023-02-26T02:01:16;100141.50;;;6.88;37.81
28428;BME280;15662;49.128;8.520;2023-02-26T02:03:44;100131.88;;;6.84;37.94
28428;BME280;15662;49.128;8.520;2023-02-26T02:06:21;100129.28;;;6.82;37.72
28428;BME280;15662;49.128;8.520;2023-02-26T02:08:52;100136.25;;;6.86;37.88
28428;BME280;15662;49.128;8.520;2023-02-26T02:11:21;100131.88;;;6.84;38.01
28428;BME280;15662;49.128;8.520;2023-02-26T02:14:17;100138.03;;;6.84;37.82
28428;BME280;15662;49.128;8.520;2023-02-26T02:23:29;100123.34;;;6.68;37.86
28428;BME280;15662;49.128;8.520;2023-02-26T02:26:57;100140.09;;;6.62;38.02
28428;BME280;15662;49.128;8.520;2023-02-26T02:29:47;100139.19;;;6.63;37.84
28428;BME280;15662;49.128;8.520;2023-02-26T02:32:50;100135.72;;;6.60;37.94
28428;BME280;15662;49.128;8.520;2023-02-26T02:35:51;100136.69;;;6.56;37.92
28428;BME280;15662;49.128;8.520;2023-02-26T02:38:27;100131.41;;;6.54;37.87
28428;BME280;15662;49.128;8.520;2023-02-26T02:41:10;100138.47;;;6.52;38.12
28428;BME280;15662;49.128;8.520;2023-02-26T02:43:41;100144.72;;;6.43;38.02
28428;BME280;15662;49.128;8.520;2023-02-26T02:46:17;100149.09;;;6.46;37.98
28428;BME280;15662;49.128;8.520;2023-02-26T02:52:19;100147.47;;;6.36;38.39
28428;BME280;15662;49.128;8.520;2023-02-26T02:54:56;100149.31;;;6.28;38.41
28428;BME280;15662;49.128;8.520;2023-02-26T02:57:36;100152.84;;;6.27;38.23
28428;BME280;15662;49.128;8.520;2023-02-26T03:00:11;100157.22;;;6.28;38.16
28428;BME280;15662;49.128;8.520;2023-02-26T03:03:15;100173.00;;;6.28;38.63
28428;BME280;15662;49.128;8.520;2023-02-26T03:05:45;100155.56;;;6.17;38.41
28428;BME280;15662;49.128;8.520;2023-02-26T03:08:17;100161.69;;;6.18;38.25
28428;BME280;15662;49.128;8.520;2023-02-26T03:10:47;100160.84;;;6.17;38.54
28428;BME280;15662;49.128;8.520;2023-02-26T03:13:19;100166.13;;;6.16;38.42
28428;BME280;15662;49.128;8.520;2023-02-26T03:16:14;100180.06;;;6.23;38.58
28428;BME280;15662;49.128;8.520;2023-02-26T03:21:48;100180.97;;;6.22;38.57
28428;BME280;15662;49.128;8.520;2023-02-26T03:33:30;100199.50;;;6.09;38.52
28428;BME280;15662;49.128;8.520;2023-02-26T03:36:17;100192.56;;;6.04;38.50
28428;BME280;15662;49.128;8.520;2023-02-26T03:39:19;100206.56;;;6.04;38.75
28428;BME280;15662;49.128;8.520;2023-02-26T03:45:03;100210.97;;;6.04;38.80
28428;BME280;15662;49.128;8.520;2023-02-26T03:47:35;100210.09;;;6.03;38.77
28428;BME280;15662;49.128;8.520;2023-02-26T03:50:21;100223.22;;;6.05;38.69
28428;BME280;15662;49.128;8.520;2023-02-26T03:53:13;100211.00;;;5.99;38.58
28428;BME280;15662;49.128;8.520;2023-02-26T03:56:08;100220.63;;;6.03;38.63
28428;BME280;15662;49.128;8.520;2023-02-26T03:59:08;100225.91;;;6.02;38.79
28428;BME280;15662;49.128;8.520;2023-02-26T04:02:26;100236.41;;;6.03;38.71
28428;BME280;15662;49.128;8.520;2023-02-26T04:05:20;100232.03;;;6.02;38.64
28428;BME280;15662;49.128;8.520;2023-02-26T04:07:50;100231.19;;;6.02;38.62
28428;BME280;15662;49.128;8.520;2023-02-26T04:10:24;100222.44;;;5.97;38.62
28428;BME280;15662;49.128;8.520;2023-02-26T04:12:58;100234.69;;;6.02;38.68
28428;BME280;15662;49.128;8.520;2023-02-26T04:15:27;100219.81;;;5.90;38.87
28428;BME280;15662;49.128;8.520;2023-02-26T04:17:55;100228.59;;;5.97;38.87
28428;BME280;15662;49.128;8.520;2023-02-26T04:20:24;100227.72;;;5.93;38.71
28428;BME280;15662;49.128;8.520;2023-02-26T04:22:54;100229.47;;;5.94;38.62
28428;BME280;15662;49.128;8.520;2023-02-26T04:25:23;100235.66;;;5.92;38.92
28428;BME280;15662;49.128;8.520;2023-02-26T04:27:53;100244.38;;;5.94;39.15
28428;BME280;15662;49.128;8.520;2023-02-26T04:30:22;100254.00;;;5.95;39.11
28428;BME280;15662;49.128;8.520;2023-02-26T04:32:50;100235.63;;;5.89;39.09
28428;BME280;15662;49.128;8.520;2023-02-26T04:35:19;100245.25;;;5.94;39.00
28428;BME280;15662;49.128;8.520;2023-02-26T04:37:47;100251.38;;;5.95;39.07
28428;BME280;15662;49.128;8.520;2023-02-26T04:40:16;100233.03;;;5.87;38.99
28428;BME280;15662;49.128;8.520;2023-02-26T04:42:45;100237.41;;;5.85;38.83
28428;BME280;15662;49.128;8.520;2023-02-26T04:45:20;100235.69;;;5.83;38.99
28428;BME280;15662;49.128;8.520;2023-02-26T04:47:48;100250.53;;;5.88;38.90
28428;BME280;15662;49.128;8.520;2023-02-26T04:50:16;100248.78;;;5.86;38.98
28428;BME280;15662;49.128;8.520;2023-02-26T04:52:46;100245.44;;;5.70;39.12
28428;BME280;15662;49.128;8.520;2023-02-26T04:55:14;100247.22;;;5.68;39.18
28428;BME280;15662;49.128;8.520;2023-02-26T04:57:43;100254.19;;;5.69;39.59
28428;BME280;15662;49.128;8.520;2023-02-26T05:00:12;100255.06;;;5.71;39.51
28428;BME280;15662;49.128;8.520;2023-02-26T05:02:40;100262.97;;;5.69;39.47
28428;BME280;15662;49.128;8.520;2023-02-26T05:05:09;100262.97;;;5.68;39.74
28428;BME280;15662;49.128;8.520;2023-02-26T05:07:39;100270.00;;;5.66;39.56
28428;BME280;15662;49.128;8.520;2023-02-26T05:10:08;100262.19;;;5.55;39.82
28428;BME280;15662;49.128;8.520;2023-02-26T05:12:37;100261.34;;;5.52;39.96
28428;BME280;15662;49.128;8.520;2023-02-26T05:15:07;100283.19;;;5.63;39.93
28428;BME280;15662;49.128;8.520;2023-02-26T05:17:36;100280.59;;;5.58;40.06
28428;BME280;15662;49.128;8.520;2023-02-26T05:20:05;100274.50;;;5.50;39.82
28428;BME280;15662;49.128;8.520;2023-02-26T05:22:38;100283.25;;;5.54;39.88
28428;BME280;15662;49.128;8.520;2023-02-26T05:25:07;100270.13;;;5.46;39.86
28428;BME280;15662;49.128;8.520;2023-02-26T05:27:36;100279.75;;;5.50;40.27
28428;BME280;15662;49.128;8.520;2023-02-26T05:30:05;100262.31;;;5.38;39.92
28428;BME280;15662;49.128;8.520;2023-02-26T05:32:37;100290.25;;;5.53;40.12
28428;BME280;15662;49.128;8.520;2023-02-26T05:35:06;100274.56;;;5.39;39.91
28428;BME280;15662;49.128;8.520;2023-02-26T05:37:35;100286.81;;;5.43;40.32
28428;BME280;15662;49.128;8.520;2023-02-26T05:40:06;100291.16;;;5.48;40.30
28428;BME280;15662;49.128;8.520;2023-02-26T05:42:38;100282.47;;;5.36;40.03
28428;BME280;15662;49.128;8.520;2023-02-26T05:45:07;100281.59;;;5.36;40.09
28428;BME280;15662;49.128;8.520;2023-02-26T05:47:37;100291.22;;;5.40;39.94
28428;BME280;15662;49.128;8.520;2023-02-26T05:50:06;100323.56;;;5.50;40.26
28428;BME280;15662;49.128;8.520;2023-02-26T05:52:35;100304.31;;;5.46;40.12
28428;BME280;15662;49.128;8.520;2023-02-26T05:55:05;100316.59;;;5.44;40.25
28428;BME280;15662;49.128;8.520;2023-02-26T05:57:34;100298.25;;;5.32;40.00
28428;BME280;15662;49.128;8.520;2023-02-26T06:00:04;100314.00;;;5.36;40.39
28428;BME280;15662;49.128;8.520;2023-02-26T06:02:39;100307.88;;;5.31;40.25
28428;BME280;15662;49.128;8.520;2023-02-26T06:05:09;100307.06;;;5.28;40.47
28428;BME280;15662;49.128;8.520;2023-02-26T06:07:37;100333.28;;;5.37;40.26
28428;BME280;15662;49.128;8.520;2023-02-26T06:10:06;100334.19;;;5.33;40.32
28428;BME280;15662;49.128;8.520;2023-02-26T06:12:36;100328.91;;;5.31;40.57
28428;BME280;15662;49.128;8.520;2023-02-26T06:15:06;100321.97;;;5.23;40.51
28428;BME280;15662;49.128;8.520;2023-02-26T06:17:35;100340.31;;;5.30;40.63
28428;BME280;15662;49.128;8.520;2023-02-26T06:20:07;100349.09;;;5.29;40.43
28428;BME280;15662;49.128;8.520;2023-02-26T06:22:35;100332.50;;;5.15;40.77
28428;BME280;15662;49.128;8.520;2023-02-26T06:25:04;100360.50;;;5.28;40.91
28428;BME280;15662;49.128;8.520;2023-02-26T06:27:34;100367.50;;;5.25;40.72
28428;BME280;15662;49.128;8.520;2023-02-26T06:30:04;100354.41;;;5.15;40.64
28428;BME280;15662;49.128;8.520;2023-02-26T06:32:35;100352.66;;;5.13;40.78
28428;BME280;15662;49.128;8.520;2023-02-26T06:35:04;100359.69;;;5.09;40.80
28428;BME280;15662;49.128;8.520;2023-02-26T06:37:33;100362.31;;;5.06;40.93
28428;BME280;15662;49.128;8.520;2023-02-26T06:40:03;100385.94;;;5.15;41.13
28428;BME280;15662;49.128;8.520;2023-02-26T06:42:32;100377.19;;;5.06;41.07
28428;BME280;15662;49.128;8.520;2023-02-26T06:45:01;100383.34;;;5.03;41.07
28428;BME280;15662;49.128;8.520;2023-02-26T06:47:30;100371.09;;;4.96;41.03
28428;BME280;15662;49.128;8.520;2023-02-26T06:49:58;100409.59;;;5.14;41.60
28428;BME280;15662;49.128;8.520;2023-02-26T06:52:27;100409.56;;;5.15;41.28
28428;BME280;15662;49.128;8.520;2023-02-26T06:54:55;100400.81;;;5.12;41.91
28428;BME280;15662;49.128;8.520;2023-02-26T06:57:24;100409.56;;;5.17;41.81
28428;BME280;15662;49.128;8.520;2023-02-26T06:59:53;100398.19;;;5.12;41.78
28428;BME280;15662;49.128;8.520;2023-02-26T07:02:22;100414.81;;;5.23;41.95
28428;BME280;15662;49.128;8.520;2023-02-26T07:04:52;100414.81;;;5.22;41.71
28428;BME280;15662;49.128;8.520;2023-02-26T07:07:21;100409.59;;;5.14;41.91
28428;BME280;15662;49.128;8.520;2023-02-26T07:09:49;100434.06;;;5.27;41.91
28428;BME280;15662;49.128;8.520;2023-02-26T07:12:18;100443.72;;;5.32;41.71
28428;BME280;15662;49.128;8.520;2023-02-26T07:14:46;100446.31;;;5.35;42.01
28428;BME280;15662;49.128;8.520;2023-02-26T07:17:17;100425.31;;;5.28;42.16
28428;BME280;15662;49.128;8.520;2023-02-26T07:19:50;100455.94;;;5.39;42.18
28428;BME280;15662;49.128;8.520;2023-02-26T07:22:19;100462.94;;;5.40;42.05
28428;BME280;15662;49.128;8.520;2023-02-26T07:24:49;100458.53;;;5.41;42.08
28428;BME280;15662;49.128;8.520;2023-02-26T07:27:18;100445.41;;;5.36;42.17
28428;BME280;15662;49.128;8.520;2023-02-26T07:29:48;100469.91;;;5.52;42.48
28428;BME280;15662;49.128;8.520;2023-02-26T07:32:16;100458.53;;;5.53;42.53
28428;BME280;15662;49.128;8.520;2023-02-26T07:34:44;100450.63;;;5.55;42.39
28428;BME280;15662;49.128;8.520;2023-02-26T07:37:13;100457.59;;;5.68;42.67
28428;BME280;15662;49.128;8.520;2023-02-26T07:39:42;100466.28;;;5.79;42.69
28428;BME280;15662;49.128;8.520;2023-02-26T07:42:14;100451.44;;;5.72;42.57
28428;BME280;15662;49.128;8.520;2023-02-26T07:44:43;100474.16;;;5.91;42.67
28428;BME280;15662;49.128;8.520;2023-02-26T07:47:13;100468.03;;;5.92;42.62
28428;BME280;15662;49.128;8.520;2023-02-26T07:49:42;100472.38;;;5.97;42.39
28428;BME280;15662;49.128;8.520;2023-02-26T07:52:10;100479.34;;;6.05;42.55
28428;BME280;15662;49.128;8.520;2023-02-26T07:54:40;100469.66;;;6.10;42.70
28428;BME280;15662;49.128;8.520;2023-02-26T07:57:08;100459.16;;;6.09;42.59
28428;BME280;15662;49.128;8.520;2023-02-26T07:59:37;100470.50;;;6.18;42.24
28428;BME280;15662;49.128;8.520;2023-02-26T08:02:06;100485.38;;;6.27;42.33
28428;BME280;15662;49.128;8.520;2023-02-26T08:04:35;100472.22;;;6.23;42.50
28428;BME280;15662;49.128;8.520;2023-02-26T08:07:03;100486.22;;;6.32;42.20
28428;BME280;15662;49.128;8.520;2023-02-26T08:09:33;100472.19;;;6.29;42.41
28428;BME280;15662;49.128;8.520;2023-02-26T08:12:01;100488.78;;;6.38;42.40
28428;BME280;15662;49.128;8.520;2023-02-26T08:14:30;100487.00;;;6.43;42.49
28428;BME280;15662;49.128;8.520;2023-02-26T08:17:01;100485.28;;;6.41;42.20
28428;BME280;15662;49.128;8.520;2023-02-26T08:19:29;100498.31;;;6.58;42.10
28428;BME280;15662;49.128;8.520;2023-02-26T08:21:58;100479.91;;;6.53;42.23
28428;BME280;15662;49.128;8.520;2023-02-26T08:24:26;100489.53;;;6.60;42.21
28428;BME280;15662;49.128;8.520;2023-02-26T08:26:55;100501.69;;;6.73;42.23
28428;BME280;15662;49.128;8.520;2023-02-26T08:29:24;100491.19;;;6.70;41.67
28428;BME280;15662;49.128;8.520;2023-02-26T08:31:52;100492.91;;;6.75;42.17
28428;BME280;15662;49.128;8.520;2023-02-26T08:34:21;100494.63;;;6.80;42.00
28428;BME280;15662;49.128;8.520;2023-02-26T08:36:49;100503.38;;;6.82;42.12
28428;BME280;15662;49.128;8.520;2023-02-26T08:39:21;100504.28;;;6.80;42.22
28428;BME280;15662;49.128;8.520;2023-02-26T08:41:50;100504.22;;;6.87;41.99
28428;BME280;15662;49.128;8.520;2023-02-26T08:44:18;100512.13;;;6.87;42.02
28428;BME280;15662;49.128;8.520;2023-02-26T08:46:47;100527.84;;;6.98;42.35
28428;BME280;15662;49.128;8.520;2023-02-26T08:49:16;100530.41;;;7.04;41.87
28428;BME280;15662;49.128;8.520;2023-02-26T08:51:44;100534.81;;;7.07;41.96
28428;BME280;15662;49.128;8.520;2023-02-26T08:54:12;100529.50;;;7.08;42.01
28428;BME280;15662;49.128;8.520;2023-02-26T08:56:41;100546.13;;;7.19;42.14
28428;BME280;15662;49.128;8.520;2023-02-26T08:59:31;100522.44;;;7.15;41.99
28428;BME280;15662;49.128;8.520;2023-02-26T09:02:00;100539.88;;;7.28;42.07
28428;BME280;15662;49.128;8.520;2023-02-26T09:04:48;100518.88;;;7.20;41.92
28428;BME280;15662;49.128;8.520;2023-02-26T09:07:30;100519.66;;;7.29;41.82
28428;BME280;15662;49.128;8.520;2023-02-26T09:09:58;100531.91;;;7.34;41.78
28428;BME280;15662;49.128;8.520;2023-02-26T09:12:28;100530.97;;;7.38;42.08
28428;BME280;15662;49.128;8.520;2023-02-26T09:14:58;100531.81;;;7.43;41.91
28428;BME280;15662;49.128;8.520;2023-02-26T09:17:30;100542.28;;;7.51;42.17
28428;BME280;15662;49.128;8.520;2023-02-26T09:20:02;100546.59;;;7.58;41.79
28428;BME280;15662;49.128;8.520;2023-02-26T09:22:32;100521.16;;;7.53;41.56
28428;BME280;15662;49.128;8.520;2023-02-26T09:25:01;100555.22;;;7.72;41.87
28428;BME280;15662;49.128;8.520;2023-02-26T09:27:32;100545.59;;;7.68;41.69
28428;BME280;15662;49.128;8.520;2023-02-26T09:30:02;100549.88;;;7.80;41.69
28428;BME280;15662;49.128;8.520;2023-02-26T09:32:36;100535.88;;;7.75;41.65
28428;BME280;15662;49.128;8.520;2023-02-26T09:35:05;100547.13;;;7.88;41.22
28428;BME280;15662;49.128;8.520;2023-02-26T09:37:35;100547.97;;;7.93;41.41
28428;BME280;15662;49.128;8.520;2023-02-26T09:40:04;100537.44;;;7.91;41.31
28428;BME280;15662;49.128;8.520;2023-02-26T09:45:30;100566.31;;;8.02;40.95
28428;BME280;15662;49.128;8.520;2023-02-26T09:48:05;100554.97;;;7.95;40.92
28428;BME280;15662;49.128;8.520;2023-02-26T09:53:28;100576.03;;;8.00;40.56
28428;BME280;15662;49.128;8.520;2023-02-26T09:56:16;100566.44;;;7.93;40.30
28428;BME280;15662;49.128;8.520;2023-02-26T09:58:46;100567.47;;;7.78;40.65
28428;BME280;15662;49.128;8.520;2023-02-26T10:01:30;100563.97;;;7.78;39.83
28428;BME280;15662;49.128;8.520;2023-02-26T10:07:14;100590.31;;;7.82;39.76
28428;BME280;15662;49.128;8.520;2023-02-26T10:09:51;100592.28;;;7.65;40.61
28428;BME280;15662;49.128;8.520;2023-02-26T10:12:25;100569.50;;;7.55;40.03
28428;BME280;15662;49.128;8.520;2023-02-26T10:18:10;100593.19;;;7.61;39.66
28428;BME280;15662;49.128;8.520;2023-02-26T10:23:58;100583.44;;;7.67;40.02
28428;BME280;15662;49.128;8.520;2023-02-26T10:27:13;100574.69;;;7.62;39.96
28428;BME280;15662;49.128;8.520;2023-02-26T10:33:00;100583.44;;;7.69;39.90
28428;BME280;15662;49.128;8.520;2023-02-26T10:35:31;100587.09;;;7.56;40.09
28428;BME280;15662;49.128;8.520;2023-02-26T10:38:11;100600.19;;;7.63;40.30
28428;BME280;15662;49.128;8.520;2023-02-26T10:44:08;100577.41;;;7.53;39.83
28428;BME280;15662;49.128;8.520;2023-02-26T10:50:00;100607.19;;;7.66;40.16
28428;BME280;15662;49.128;8.520;2023-02-26T10:52:32;100611.56;;;7.70;40.30
28428;BME280;15662;49.128;8.520;2023-02-26T11:00:33;100620.38;;;7.69;39.70
28428;BME280;15662;49.128;8.520;2023-02-26T11:03:04;100600.28;;;7.54;39.86
28428;BME280;15662;49.128;8.520;2023-02-26T11:05:37;100622.09;;;7.68;40.06
28428;BME280;15662;49.128;8.520;2023-02-26T11:08:25;100625.59;;;7.75;40.08
28428;BME280;15662;49.128;8.520;2023-02-26T11:11:01;100602.84;;;7.62;39.80
28428;BME280;15662;49.128;8.520;2023-02-26T11:13:35;100624.72;;;7.73;40.21
28428;BME280;15662;49.128;8.520;2023-02-26T11:16:13;100633.41;;;7.83;39.93
28428;BME280;15662;49.128;8.520;2023-02-26T11:18:52;100621.97;;;7.82;39.88
28428;BME280;15662;49.128;8.520;2023-02-26T11:21:35;100625.47;;;7.86;39.69
28428;BME280;15662;49.128;8.520;2023-02-26T11:24:41;100628.03;;;7.93;39.97
28428;BME280;15662;49.128;8.520;2023-02-26T11:27:16;100620.97;;;7.95;40.37
28428;BME280;15662;49.128;8.520;2023-02-26T11:29:55;100625.41;;;7.93;40.11
28428;BME280;15662;49.128;8.520;2023-02-26T11:32:34;100634.00;;;8.11;39.91
28428;BME280;15662;49.128;8.520;2023-02-26T11:35:07;100648.06;;;8.11;39.50
28428;BME280;15662;49.128;8.520;2023-02-26T11:37:40;100608.63;;;7.99;39.79
28428;BME280;15662;49.128;8.520;2023-02-26T11:40:21;100627.94;;;8.01;39.72
28428;BME280;15662;49.128;8.520;2023-02-26T11:42:58;100635.81;;;8.06;39.64
28428;BME280;15662;49.128;8.520;2023-02-26T11:45:30;100620.06;;;7.96;39.76
28428;BME280;15662;49.128;8.520;2023-02-26T11:48:12;100621.66;;;8.11;39.43
28428;BME280;15662;49.128;8.520;2023-02-26T11:50:46;100632.13;;;8.20;39.58
28428;BME280;15662;49.128;8.520;2023-02-26T11:53:52;100630.28;;;8.25;39.17
28428;BME280;15662;49.128;8.520;2023-02-26T11:58:54;100602.25;;;8.15;39.32
28428;BME280;15662;49.128;8.520;2023-02-26T12:01:27;100625.94;;;8.21;39.01
28428;BME280;15662;49.128;8.520;2023-02-26T12:04:01;100631.25;;;8.20;39.38
28428;BME280;15662;49.128;8.520;2023-02-26T12:06:31;100611.13;;;8.10;39.22
28428;BME280;15662;49.128;8.520;2023-02-26T12:09:00;100617.28;;;8.10;39.19
28428;BME280;15662;49.128;8.520;2023-02-26T12:12:15;100618.00;;;8.21;38.96
28428;BME280;15662;49.128;8.520;2023-02-26T12:23:55;100626.84;;;8.20;38.72
28428;BME280;15662;49.128;8.520;2023-02-26T12:26:34;100602.22;;;8.18;39.32
28428;BME280;15662;49.128;8.520;2023-02-26T12:43:51;100621.31;;;8.43;39.22
28428;BME280;15662;49.128;8.520;2023-02-26T12:49:59;100636.34;;;8.37;39.05
28428;BME280;15662;49.128;8.520;2023-02-26T12:55:53;100637.13;;;8.45;38.88
28428;BME280;15662;49.128;8.520;2023-02-26T12:58:59;100637.09;;;8.46;38.95
28428;BME280;15662;49.128;8.520;2023-02-26T13:05:16;100636.16;;;8.53;39.00
28428;BME280;15662;49.128;8.520;2023-02-26T13:17:32;100602.63;;;8.57;38.53
28428;BME280;15662;49.128;8.520;2023-02-26T13:20:25;100617.50;;;8.64;38.00
28428;BME280;15662;49.128;8.520;2023-02-26T13:23:00;100603.50;;;8.56;38.32
28428;BME280;15662;49.128;8.520;2023-02-26T13:28:57;100620.97;;;8.66;37.74
28428;BME280;15662;49.128;8.520;2023-02-26T13:34:56;100620.94;;;8.72;37.56
28428;BME280;15662;49.128;8.520;2023-02-26T13:37:33;100613.84;;;8.74;38.06
28428;BME280;15662;49.128;8.520;2023-02-26T13:53:04;100625.84;;;8.95;36.62
28428;BME280;15662;49.128;8.520;2023-02-26T13:56:12;100643.47;;;8.98;36.75
28428;BME280;15662;49.128;8.520;2023-02-26T13:58:47;100632.19;;;8.87;36.60
28428;BME280;15662;49.128;8.520;2023-02-26T14:06:55;100644.19;;;9.08;36.28
28428;BME280;15662;49.128;8.520;2023-02-26T14:09:34;100635.38;;;9.07;36.37
28428;BME280;15662;49.128;8.520;2023-02-26T14:18:00;100633.81;;;8.94;36.43
28428;BME280;15662;49.128;8.520;2023-02-26T14:20:33;100643.41;;;8.99;35.72
28428;BME280;15662;49.128;8.520;2023-02-26T14:23:13;100655.63;;;9.08;36.10
28428;BME280;15662;49.128;8.520;2023-02-26T14:25:50;100651.41;;;8.95;35.93
28428;BME280;15662;49.128;8.520;2023-02-26T14:34:12;100644.56;;;8.83;35.92
28428;BME280;15662;49.128;8.520;2023-02-26T14:37:13;100650.66;;;8.88;35.79
28428;BME280;15662;49.128;8.520;2023-02-26T14:40:15;100653.31;;;8.87;35.82
28428;BME280;15662;49.128;8.520;2023-02-26T14:42:53;100641.91;;;8.83;35.89
28428;BME280;15662;49.128;8.520;2023-02-26T14:45:35;100658.56;;;8.88;35.42
28428;BME280;15662;49.128;8.520;2023-02-26T14:48:11;100647.22;;;8.80;35.43
28428;BME280;15662;49.128;8.520;2023-02-26T15:00:04;100688.44;;;8.95;35.78
28428;BME280;15662;49.128;8.520;2023-02-26T15:08:47;100690.25;;;8.91;35.70
28428;BME280;15662;49.128;8.520;2023-02-26T15:12:05;100706.03;;;8.96;35.92
28428;BME280;15662;49.128;8.520;2023-02-26T15:26:11;100705.41;;;8.78;35.67
28428;BME280;15662;49.128;8.520;2023-02-26T15:28:43;100685.16;;;8.76;35.37
28428;BME280;15662;49.128;8.520;2023-02-26T15:31:13;100702.72;;;8.80;35.50
28428;BME280;15662;49.128;8.520;2023-02-26T15:33:47;100703.84;;;8.61;35.84
28428;BME280;15662;49.128;8.520;2023-02-26T15:36:18;100697.00;;;8.47;35.91
28428;BME280;15662;49.128;8.520;2023-02-26T15:38:57;100693.41;;;8.53;35.61
28428;BME280;15662;49.128;8.520;2023-02-26T15:41:30;100698.59;;;8.59;35.34
28428;BME280;15662;49.128;8.520;2023-02-26T15:44:07;100695.78;;;8.71;35.80
28428;BME280;15662;49.128;8.520;2023-02-26T15:46:43;100701.94;;;8.73;35.81
28428;BME280;15662;49.128;8.520;2023-02-26T15:49:37;100697.56;;;8.71;35.65
28428;BME280;15662;49.128;8.520;2023-02-26T15:52:11;100713.41;;;8.72;35.43
28428;BME280;15662;49.128;8.520;2023-02-26T15:54:43;100730.16;;;8.71;35.65
28428;BME280;15662;49.128;8.520;2023-02-26T15:57:15;100716.19;;;8.63;35.26
28428;BME280;15662;49.128;8.520;2023-02-26T15:59:53;100721.47;;;8.60;35.33
28428;BME280;15662;49.128;8.520;2023-02-26T16:02:30;100721.59;;;8.51;34.90
28428;BME280;15662;49.128;8.520;2023-02-26T16:05:02;100733.09;;;8.45;34.94
28428;BME280;15662;49.128;8.520;2023-02-26T16:07:33;100722.63;;;8.35;35.13
28428;BME280;15662;49.128;8.520;2023-02-26T16:10:37;100723.47;;;8.41;35.31
28428;BME280;15662;49.128;8.520;2023-02-26T16:13:14;100721.75;;;8.37;34.85
28428;BME280;15662;49.128;8.520;2023-02-26T16:15:43;100744.53;;;8.49;34.91
28428;BME280;15662;49.128;8.520;2023-02-26T16:18:17;100755.13;;;8.44;34.63
28428;BME280;15662;49.128;8.520;2023-02-26T16:20:54;100748.16;;;8.37;34.58
28428;BME280;15662;49.128;8.520;2023-02-26T16:23:49;100750.78;;;8.40;34.29
28428;BME280;15662;49.128;8.520;2023-02-26T16:26:31;100746.41;;;8.32;34.31
28428;BME280;15662;49.128;8.520;2023-02-26T16:29:07;100773.69;;;8.37;34.40
28428;BME280;15662;49.128;8.520;2023-02-26T16:31:40;100751.00;;;8.14;34.25
28428;BME280;15662;49.128;8.520;2023-02-26T16:42:53;100786.13;;;8.22;34.19
28428;BME280;15662;49.128;8.520;2023-02-26T16:48:27;100773.00;;;8.18;34.68
28428;BME280;15662;49.128;8.520;2023-02-26T16:51:09;100783.59;;;8.13;34.15
28428;BME280;15662;49.128;8.520;2023-02-26T16:56:17;100804.63;;;8.24;34.37
28428;BME280;15662;49.128;8.520;2023-02-26T16:59:16;100811.69;;;8.20;33.92